createdAt,value
2018-03-21T05:40:31.604Z,5.47
2018-03-21T05:43:03.820Z,5.50
2018-03-21T05:45:35.999Z,5.40
2018-03-21T05:48:08.185Z,5.83
2018-03-21T05:50:40.044Z,5.03
2018-03-21T05:53:11.931Z,5.33
2018-03-21T05:55:43.807Z,5.50
2018-03-21T05:58:16.007Z,5.83
2018-03-21T06:00:47.888Z,5.43
2018-03-21T06:03:19.783Z,5.43
2018-03-21T06:05:51.668Z,5.37
2018-03-21T06:08:24.320Z,5.50
2018-03-21T06:10:56.191Z,5.30
2018-03-21T06:13:28.095Z,5.03
2018-03-21T06:15:59.972Z,5.23
2018-03-21T06:18:31.848Z,5.00
2018-03-21T06:21:03.723Z,4.87
2018-03-21T06:23:35.620Z,4.77
2018-03-21T06:26:07.495Z,5.13
2018-03-21T06:28:39.438Z,4.97
2018-03-21T06:31:12.081Z,4.83
2018-03-21T06:33:43.960Z,5.00
2018-03-21T06:36:16.610Z,4.80
2018-03-21T06:38:48.483Z,5.00
2018-03-21T06:41:20.356Z,4.90
2018-03-21T06:43:53.038Z,5.17
2018-03-21T06:46:25.736Z,4.83
2018-03-21T06:48:57.662Z,4.83
2018-03-21T06:51:29.554Z,4.60
2018-03-21T06:54:02.196Z,5.50
2018-03-21T06:56:34.059Z,5.40
2018-03-21T06:59:05.967Z,5.90
2018-03-21T07:01:37.851Z,6.23
2018-03-21T07:04:09.980Z,5.97
2018-03-21T07:06:41.848Z,6.37
2018-03-21T07:09:13.737Z,5.70
2018-03-21T07:11:45.620Z,6.13
2018-03-21T07:14:29.349Z,6.47
2018-03-21T07:17:01.460Z,5.70
2018-03-21T07:19:33.475Z,6.90
2018-03-21T07:22:05.349Z,7.37
2018-03-21T07:24:37.224Z,7.57
2018-03-21T07:27:09.159Z,8.47
2018-03-21T07:29:41.047Z,11.50
2018-03-21T07:32:13.796Z,14.70
2018-03-21T07:34:45.676Z,16.47
2018-03-21T07:37:17.540Z,19.80
2018-03-21T07:39:49.427Z,22.67
2018-03-21T07:42:21.295Z,32.37
2018-03-21T07:44:53.196Z,35.67
2018-03-21T07:47:25.067Z,37.57
2018-03-21T07:49:56.951Z,38.43
2018-03-21T07:52:29.620Z,39.43
2018-03-21T07:55:01.506Z,40.60
2018-03-21T07:57:33.596Z,40.90
2018-03-21T08:00:05.482Z,41.90
2018-03-21T08:02:37.350Z,42.30
2018-03-21T08:05:09.236Z,43.87
2018-03-21T08:07:41.872Z,41.97
2018-03-21T08:10:14.019Z,41.70
2018-03-21T08:12:46.159Z,38.17
2018-03-21T08:15:18.055Z,39.43
2018-03-21T08:17:49.922Z,40.67
2018-03-21T08:20:21.816Z,40.07
2018-03-21T08:22:53.680Z,39.57
2018-03-21T08:25:26.335Z,36.30
2018-03-21T08:27:58.252Z,41.60
2018-03-21T08:30:30.104Z,40.97
2018-03-21T08:33:01.975Z,41.70
2018-03-21T08:35:33.925Z,42.87
2018-03-21T08:38:05.830Z,41.40
2018-03-21T08:40:37.712Z,41.87
2018-03-21T08:43:09.592Z,42.67
2018-03-21T08:45:42.244Z,40.47
2018-03-21T08:48:14.119Z,37.17
2018-03-21T08:50:45.996Z,37.47
2018-03-21T08:53:18.627Z,38.17
2018-03-21T08:55:50.640Z,38.80
2018-03-21T08:58:23.280Z,38.30
2018-03-21T09:00:56.306Z,38.90
2018-03-21T09:03:28.269Z,35.20
2018-03-21T09:06:00.182Z,37.30
2018-03-21T09:08:32.152Z,37.97
2018-03-21T09:11:05.586Z,33.77
2018-03-21T09:13:38.312Z,34.13
2018-03-21T09:16:10.434Z,29.43
2018-03-21T09:18:42.335Z,27.77
2018-03-21T09:21:14.224Z,25.30
2018-03-21T09:23:46.159Z,24.13
2018-03-21T09:26:18.048Z,23.30
2018-03-21T09:28:49.934Z,21.30
2018-03-21T09:31:22.583Z,20.57
2018-03-21T09:33:54.456Z,21.30
2018-03-21T09:36:27.112Z,20.60
2018-03-21T09:38:58.987Z,18.50
2018-03-21T09:41:30.972Z,17.83
2018-03-21T09:44:03.598Z,16.37
2018-03-21T09:46:35.483Z,17.10
2018-03-21T09:49:07.355Z,17.13
2018-03-21T09:51:40.009Z,17.07
2018-03-21T09:54:11.879Z,16.80
2018-03-21T09:56:43.769Z,18.07
2018-03-21T09:59:15.937Z,21.40
2018-03-21T10:01:47.819Z,21.50
2018-03-21T10:04:19.692Z,22.03
2018-03-21T10:06:51.580Z,25.80
2018-03-21T10:09:23.481Z,23.23
2018-03-21T10:11:56.122Z,24.80
2018-03-21T10:14:27.999Z,24.60
2018-03-21T10:17:00.652Z,24.00
2018-03-21T10:19:32.519Z,21.40
2018-03-21T10:22:04.416Z,20.20
2018-03-21T10:24:36.289Z,23.53
2018-03-21T10:27:08.178Z,26.10
2018-03-21T10:29:40.049Z,27.27
2018-03-21T10:32:11.951Z,28.13
2018-03-21T10:34:44.119Z,29.50
2018-03-21T10:37:16.008Z,28.50
2018-03-21T10:39:47.879Z,32.03
2018-03-21T10:42:19.760Z,31.90
2018-03-21T10:44:51.641Z,31.23
2018-03-21T10:47:24.543Z,30.77
2018-03-21T10:49:56.419Z,32.20
2018-03-21T10:52:38.777Z,31.27
2018-03-21T10:55:00.210Z,29.53
2018-03-21T10:57:32.851Z,31.33
2018-03-21T11:00:04.737Z,29.27
2018-03-21T11:02:36.625Z,30.33
2018-03-21T11:05:08.514Z,34.57
2018-03-21T11:07:40.424Z,32.13
2018-03-21T11:10:13.060Z,28.80
2018-03-21T11:12:44.954Z,29.07
2018-03-21T11:15:16.829Z,27.87
2018-03-21T11:17:49.479Z,28.47
2018-03-21T11:20:21.342Z,25.50
2018-03-21T11:22:53.239Z,24.80
2018-03-21T11:25:25.868Z,26.27
2018-03-21T11:27:57.988Z,29.37
2018-03-21T11:30:29.868Z,28.33
2018-03-21T11:33:01.772Z,28.20
2018-03-21T11:35:33.643Z,26.27
2018-03-21T11:38:06.391Z,27.83
2018-03-21T11:40:38.295Z,24.57
2018-03-21T11:43:10.953Z,25.47
2018-03-21T11:45:43.062Z,24.13
2018-03-21T11:48:14.949Z,24.00
2018-03-21T11:50:46.816Z,25.60
2018-03-21T11:53:19.043Z,22.90
2018-03-21T11:55:50.906Z,23.17
2018-03-21T11:58:22.862Z,19.73
2018-03-21T12:00:54.732Z,20.33
2018-03-21T12:03:26.627Z,19.50
2018-03-21T12:05:58.499Z,22.00
2018-03-21T12:08:30.423Z,20.23
2018-03-21T12:11:02.274Z,21.80
2018-03-21T12:13:35.004Z,23.43
2018-03-21T12:16:07.103Z,25.17
2018-03-21T12:18:38.991Z,24.70
2018-03-21T12:21:10.874Z,23.97
2018-03-21T12:23:42.764Z,20.00
2018-03-21T12:26:15.409Z,19.23
2018-03-21T12:28:47.546Z,18.57
2018-03-21T12:31:19.417Z,17.43
2018-03-21T12:33:51.323Z,19.20
2018-03-21T12:36:23.178Z,19.57
2018-03-21T12:38:55.375Z,19.70
2018-03-21T12:41:28.019Z,18.63
2018-03-21T12:43:59.907Z,17.87
2018-03-21T12:46:32.540Z,19.53
2018-03-21T12:49:04.432Z,17.67
2018-03-21T12:51:36.306Z,16.70
2018-03-21T12:54:08.952Z,16.07
2018-03-21T12:56:40.829Z,16.08
2018-03-21T12:59:12.714Z,14.43
2018-03-21T13:01:44.591Z,14.33
2018-03-21T13:04:16.737Z,14.17
2018-03-21T13:06:48.603Z,12.47
2018-03-21T13:09:20.492Z,13.60
2018-03-21T13:11:52.356Z,9.60
2018-03-21T13:14:24.267Z,10.80
2018-03-21T13:16:56.915Z,9.87
2018-03-21T13:19:28.796Z,10.50
2018-03-21T13:22:01.434Z,9.20
2018-03-21T13:24:33.360Z,9.00
2018-03-21T13:27:05.231Z,9.53
2018-03-21T13:29:37.123Z,10.53
2018-03-21T13:32:08.997Z,9.97
2018-03-21T13:34:40.907Z,10.10
2018-03-21T13:37:12.779Z,9.20
2018-03-21T13:39:44.660Z,9.17
2018-03-21T13:42:16.527Z,9.03
2018-03-21T13:44:48.411Z,10.07
2018-03-21T13:47:21.064Z,9.73
2018-03-21T13:49:52.948Z,9.13
2018-03-21T13:52:24.840Z,9.50
2018-03-21T13:54:57.467Z,9.77
2018-03-21T13:57:29.330Z,9.50
2018-03-21T14:00:01.224Z,9.70
2018-03-21T14:02:33.860Z,9.97
2018-03-21T14:05:05.871Z,10.73
2018-03-21T14:07:38.755Z,11.73
2018-03-21T14:10:10.671Z,12.43
2018-03-21T14:12:42.780Z,11.47
2018-03-21T14:15:14.668Z,11.00
2018-03-21T14:17:46.552Z,15.87
2018-03-21T14:20:18.479Z,14.37
2018-03-21T14:22:50.353Z,13.03
2018-03-21T14:25:22.284Z,13.83
2018-03-21T14:27:54.155Z,13.67
2018-03-21T14:30:26.955Z,12.67
2018-03-21T14:32:59.095Z,18.50
2018-03-21T14:35:30.980Z,19.33
2018-03-21T14:38:02.960Z,18.33
2018-03-21T14:40:34.845Z,17.50
2018-03-21T14:43:06.711Z,17.93
2018-03-21T14:45:38.637Z,14.03
2018-03-21T14:48:10.590Z,9.57
2018-03-21T14:50:42.476Z,8.50
2018-03-21T14:53:14.367Z,8.47
2018-03-21T14:55:46.327Z,7.77
2018-03-21T14:58:19.467Z,7.67
2018-03-21T15:00:51.442Z,8.00
2018-03-21T15:03:23.309Z,7.70
2018-03-21T15:05:55.206Z,8.47
2018-03-21T15:08:27.848Z,7.37
2018-03-21T15:10:59.736Z,8.17
2018-03-21T15:13:32.383Z,7.47
2018-03-21T15:16:04.542Z,6.23
2018-03-21T15:18:36.411Z,6.17
2018-03-21T15:21:08.626Z,5.57
2018-03-21T15:23:40.498Z,6.07
2018-03-21T15:26:12.382Z,5.57
2018-03-21T15:28:44.247Z,6.23
2018-03-21T15:31:16.367Z,6.37
2018-03-21T15:33:48.233Z,6.20
2018-03-21T15:36:20.116Z,6.00
2018-03-21T15:38:52.008Z,6.13
2018-03-21T15:41:23.900Z,6.60
2018-03-21T15:43:56.544Z,5.40
2018-03-21T15:46:28.752Z,5.83
2018-03-21T15:49:00.623Z,6.57
2018-03-21T15:51:32.514Z,5.63
2018-03-21T15:54:04.387Z,6.30
2018-03-21T15:56:36.267Z,6.63
2018-03-21T15:59:10.200Z,5.60
2018-03-21T16:01:42.364Z,6.60
2018-03-21T16:04:14.240Z,6.77
2018-03-21T16:06:46.124Z,6.70
2018-03-21T16:09:18.015Z,6.40
2018-03-21T16:11:49.900Z,6.83
2018-03-21T16:14:22.544Z,6.73
2018-03-21T16:16:54.443Z,6.60
2018-03-21T16:19:26.327Z,7.00
2018-03-21T16:21:58.471Z,8.20
2018-03-21T16:24:30.340Z,6.63
2018-03-21T16:29:47.256Z,8.57
2018-03-21T16:32:19.903Z,7.80
2018-03-21T16:34:51.795Z,7.90
2018-03-21T16:37:24.680Z,8.70
2018-03-21T16:39:56.928Z,8.97
2018-03-21T16:42:28.770Z,8.87
2018-03-21T16:45:00.635Z,9.07
2018-03-21T16:47:32.520Z,8.93
2018-03-21T16:50:05.153Z,9.23
2018-03-21T16:52:37.047Z,9.83
2018-03-21T16:55:09.683Z,8.93
2018-03-21T16:57:41.571Z,8.90
2018-03-21T17:00:13.439Z,7.97
2018-03-21T17:02:45.327Z,9.27
2018-03-21T17:05:17.192Z,9.23
2018-03-21T17:07:49.149Z,8.87
2018-03-21T17:10:21.335Z,8.10
2018-03-21T17:12:53.451Z,8.60
2018-03-21T17:15:25.311Z,9.47
2018-03-21T17:17:57.196Z,9.47
2018-03-21T17:20:29.118Z,10.50
2018-03-21T17:23:00.957Z,10.23
2018-03-21T17:25:33.091Z,10.37
2018-03-21T17:28:04.972Z,10.67
2018-03-21T17:30:36.881Z,10.43
2018-03-21T17:33:08.719Z,11.00
2018-03-21T17:35:40.602Z,10.00
2018-03-21T17:38:12.492Z,10.00
2018-03-21T17:40:44.654Z,10.43
2018-03-21T17:43:16.540Z,10.17
2018-03-21T17:45:48.407Z,10.50
2018-03-21T17:48:20.296Z,11.57
2018-03-21T17:50:52.179Z,11.70
2018-03-21T17:53:24.879Z,11.10
2018-03-21T17:55:56.773Z,11.63
2018-03-21T17:58:28.661Z,12.53
2018-03-21T18:01:00.538Z,12.83
2018-03-21T18:03:33.188Z,13.27
2018-03-21T18:06:05.059Z,14.03
2018-03-21T18:08:36.944Z,13.23
2018-03-21T18:11:09.591Z,13.70
2018-03-21T18:13:41.479Z,11.43
2018-03-21T18:16:14.116Z,28.40
2018-03-21T18:18:46.056Z,19.10
2018-03-21T18:21:18.663Z,14.40
2018-03-21T18:23:50.544Z,13.73
2018-03-21T18:26:23.180Z,13.23
2018-03-21T18:28:55.073Z,14.30
2018-03-21T18:31:26.936Z,14.43
2018-03-21T18:33:58.824Z,16.60
2018-03-21T18:36:30.987Z,14.70
2018-03-21T18:39:02.875Z,13.93
2018-03-21T18:41:34.755Z,11.80
2018-03-21T18:44:06.875Z,12.17
2018-03-21T18:46:38.744Z,11.53
2018-03-21T18:49:10.623Z,10.53
2018-03-21T18:51:42.528Z,10.13
2018-03-21T18:54:14.422Z,9.70
2018-03-21T18:56:46.295Z,9.43
2018-03-21T18:59:18.220Z,9.70
2018-03-21T19:01:50.916Z,10.23
2018-03-21T19:04:23.906Z,10.23
2018-03-21T19:06:56.015Z,12.27
2018-03-21T19:09:27.912Z,11.73
2018-03-21T19:12:00.574Z,10.57
2018-03-21T19:14:32.456Z,11.40
2018-03-21T19:17:05.117Z,10.67
2018-03-21T19:19:37.318Z,9.87
2018-03-21T19:22:09.219Z,9.10
2018-03-21T19:24:41.109Z,9.10
2018-03-21T19:27:13.303Z,9.27
2018-03-21T19:29:45.183Z,8.87
2018-03-21T19:32:17.100Z,8.27
2018-03-21T19:34:48.998Z,9.40
2018-03-21T19:37:20.863Z,12.73
2018-03-21T19:39:52.759Z,10.50
2018-03-21T19:42:24.623Z,10.67
2018-03-21T19:44:56.560Z,9.80
2018-03-21T19:47:28.447Z,10.40
2018-03-21T19:50:00.654Z,11.83
2018-03-21T19:52:32.532Z,13.27
2018-03-21T19:55:04.436Z,13.07
2018-03-21T19:57:36.295Z,12.37
2018-03-21T20:00:08.180Z,13.00
2018-03-21T20:02:40.926Z,11.27
2018-03-21T20:05:12.819Z,11.93
2018-03-21T20:07:45.467Z,10.67
2018-03-21T20:10:17.379Z,10.50
2018-03-21T20:12:49.267Z,10.60
2018-03-21T20:15:22.217Z,10.70
2018-03-21T20:17:54.114Z,10.37
2018-03-21T20:20:25.999Z,10.93
2018-03-21T20:22:57.880Z,11.00
2018-03-21T20:25:30.531Z,10.57
2018-03-21T20:28:03.908Z,10.63
2018-03-21T20:30:35.795Z,11.33
2018-03-21T20:33:07.672Z,11.93
2018-03-21T20:35:40.319Z,10.73
2018-03-21T20:38:12.436Z,11.63
2018-03-21T20:40:44.319Z,11.10
2018-03-21T20:43:16.188Z,10.63
2018-03-21T20:45:48.303Z,10.97
2018-03-21T20:48:20.943Z,11.17
2018-03-21T20:50:52.839Z,10.73
2018-03-21T20:53:25.744Z,10.17
2018-03-21T20:55:57.636Z,10.50
2018-03-21T20:58:29.500Z,10.60
2018-03-21T21:01:01.385Z,10.90
2018-03-21T21:03:33.256Z,12.20
2018-03-21T21:06:05.145Z,13.17
2018-03-21T21:08:37.016Z,13.80
2018-03-21T21:11:08.925Z,16.37
2018-03-21T21:13:41.632Z,13.60
2018-03-21T21:16:14.284Z,15.57
2018-03-21T21:18:46.529Z,13.53
